Time;durP1;ratioP1;P1;durP2;ratioP2;P2;SDS_P1;SDS_P2;PMS_P1;PMS_P2;Temp;Humidity;BMP_temperature;BMP_pressure;BME280_temperature;BME280_humidity;BME280_pressure;Samples;Min_cycle;Max_cycle;Signal;HPM_P1;HPM_P2
2022/10/11 00:08:35;;;;;;;14.80;9.40;;;;;;;11.01;72.46;98919.77;422892;1284;107333;-39
2022/10/11 00:18:43;;;;;;;20.00;10.50;;;;;;;10.98;72.58;98926.41;422925;1277;98548;-40
2022/10/11 00:28:52;;;;;;;15.00;8.70;;;;;;;10.95;72.61;98934.39;423055;1292;110580;-40
2022/10/11 00:39:00;;;;;;;12.00;7.70;;;;;;;11.01;72.59;98934.05;422721;1292;107628;-40
2022/10/11 00:49:14;;;;;;;12.30;7.90;;;;;;;11.07;72.67;98926.95;422922;1288;97893;-40
2022/10/11 00:59:23;;;;;;;10.70;7.20;;;;;;;11.05;72.66;98931.99;423044;1288;107239;-40
2022/10/11 01:09:31;;;;;;;16.40;9.10;;;;;;;10.95;72.64;98932.30;422890;1292;98545;-40
2022/10/11 01:19:42;;;;;;;16.30;8.00;;;;;;;10.84;72.56;98927.11;423664;1272;97580;-41
2022/10/11 01:29:53;;;;;;;16.20;8.10;;;;;;;10.80;72.54;98920.70;422942;1295;107861;-41
2022/10/11 01:40:07;;;;;;;12.30;7.50;;;;;;;10.82;72.79;98923.65;422470;1285;97485;-42
2022/10/11 01:50:44;;;;;;;16.70;7.90;;;;;;;10.82;72.94;98920.55;422679;1293;110882;-41
2022/10/11 02:00:49;;;;;;;15.40;8.60;;;;;;;10.77;73.01;98919.93;422347;1294;107955;-40
2022/10/11 02:10:54;;;;;;;14.30;8.40;;;;;;;10.68;73.00;98926.68;422533;1295;97000;-40
2022/10/11 02:21:05;;;;;;;13.70;7.90;;;;;;;10.62;73.11;98931.20;422620;1295;110081;-40
2022/10/11 02:31:15;;;;;;;12.50;5.90;;;;;;;10.64;73.19;98928.64;422729;1294;108475;-40
2022/10/11 02:41:23;;;;;;;8.10;6.10;;;;;;;10.73;73.34;98928.41;422795;1293;98010;-40
2022/10/11 02:51:31;;;;;;;10.30;7.10;;;;;;;10.78;73.38;98937.05;422761;1291;108781;-40
2022/10/11 03:01:38;;;;;;;12.50;7.80;;;;;;;10.78;73.56;98938.84;422993;1293;97909;-40
2022/10/11 03:11:45;;;;;;;10.40;7.00;;;;;;;10.75;73.73;98944.70;422534;1286;97861;-41
2022/10/11 03:21:53;;;;;;;10.10;8.20;;;;;;;10.70;73.98;98951.48;423114;1295;108949;-40
2022/10/11 03:32:00;;;;;;;13.50;7.90;;;;;;;10.71;74.32;98957.48;423133;1295;96698;-40
2022/10/11 03:42:08;;;;;;;15.50;8.00;;;;;;;10.71;74.50;98960.14;422855;1295;110767;-40
2022/10/11 03:52:15;;;;;;;16.00;9.30;;;;;;;10.71;74.81;98972.09;423062;1291;109215;-40
2022/10/11 04:02:22;;;;;;;17.00;10.30;;;;;;;10.61;74.96;98983.02;422820;1294;97940;-40
2022/10/11 04:12:29;;;;;;;13.70;8.70;;;;;;;10.53;75.08;98991.14;422909;1292;109658;-41
2022/10/11 04:22:37;;;;;;;12.70;9.30;;;;;;;10.47;75.11;98999.37;422508;1293;107350;-41
2022/10/11 04:32:43;;;;;;;14.40;9.50;;;;;;;10.36;75.36;99009.92;422871;1286;96655;-40
2022/10/11 04:42:52;;;;;;;12.70;9.30;;;;;;;10.33;75.74;99016.62;422859;1298;108543;-40
2022/10/11 04:52:59;;;;;;;19.00;10.20;;;;;;;10.38;76.06;99028.21;422729;1293;97966;-41
2022/10/11 05:03:06;;;;;;;14.70;9.90;;;;;;;10.48;76.42;99038.16;422762;1294;111714;-41
2022/10/11 05:13:13;;;;;;;18.00;10.20;;;;;;;10.58;76.47;99051.77;422602;1298;109367;-40
2022/10/11 05:23:20;;;;;;;14.20;10.30;;;;;;;10.62;76.47;99067.01;422845;1289;97886;-39
2022/10/11 05:33:27;;;;;;;18.90;10.20;;;;;;;10.62;76.59;99074.02;422695;1298;108211;-39
2022/10/11 05:43:35;;;;;;;15.50;10.60;;;;;;;10.65;76.89;99081.94;422927;1284;97519;-39
2022/10/11 05:53:42;;;;;;;18.30;12.80;;;;;;;10.57;76.84;99099.70;422847;1295;109657;-39
2022/10/11 06:03:49;;;;;;;17.40;11.90;;;;;;;10.66;77.10;99110.40;422910;1298;107470;-40
2022/10/11 06:24:04;;;;;;;18.50;11.30;;;;;;;12.75;77.13;99134.40;422576;1292;108611;-40
2022/10/11 06:34:12;;;;;;;19.20;11.80;;;;;;;13.25;76.38;99152.90;423156;1290;97485;-41
2022/10/11 06:44:19;;;;;;;15.40;11.60;;;;;;;13.33;76.09;99163.15;422642;1293;96691;-40
2022/10/11 06:54:25;;;;;;;17.40;9.20;;;;;;;13.47;76.02;99176.14;422995;1289;110042;-40
2022/10/11 07:14:39;;;;;;;17.00;12.30;;;;;;;13.23;75.64;99198.77;422773;1293;97586;-41
2022/10/11 07:24:47;;;;;;;20.20;12.90;;;;;;;12.69;75.97;99225.08;422899;1293;110896;-40
2022/10/11 07:45:02;;;;;;;19.00;12.10;;;;;;;11.91;76.60;99263.88;422644;1292;97514;-40
2022/10/11 07:55:10;;;;;;;14.60;11.00;;;;;;;11.78;76.81;99274.09;422867;1293;107510;-41
2022/10/11 08:05:16;;;;;;;15.80;11.30;;;;;;;11.59;77.22;99288.74;422894;1290;97974;-41
2022/10/11 08:15:23;;;;;;;16.70;10.70;;;;;;;11.80;77.46;99293.77;422764;1292;110822;-40
2022/10/11 08:25:30;;;;;;;17.40;10.60;;;;;;;11.98;77.58;99301.83;422628;1285;107477;-41
2022/10/11 08:35:37;;;;;;;18.00;11.90;;;;;;;12.16;77.54;99306.35;422822;1293;97762;-40
2022/10/11 08:45:50;;;;;;;15.80;11.10;;;;;;;12.20;77.40;99309.52;423485;1277;110757;-40
2022/10/11 08:55:57;;;;;;;21.90;12.80;;;;;;;12.31;77.40;99315.95;423214;1287;108283;-39
2022/10/11 09:06:05;;;;;;;18.40;11.00;;;;;;;12.43;77.40;99322.52;422580;1292;97860;-40
2022/10/11 09:16:14;;;;;;;19.40;13.00;;;;;;;12.44;77.44;99333.20;422722;1292;107846;-39
2022/10/11 09:26:27;;;;;;;14.70;11.00;;;;;;;12.56;77.40;99343.40;422994;1285;97507;-40
2022/10/11 09:36:35;;;;;;;20.30;11.70;;;;;;;12.44;77.08;99348.26;422820;1286;98567;-40
2022/10/11 09:46:42;;;;;;;15.30;10.30;;;;;;;12.30;77.02;99352.13;422684;1294;107834;-41
2022/10/11 09:56:50;;;;;;;11.30;8.80;;;;;;;12.58;77.04;99357.67;422787;1289;98549;-40
2022/10/11 10:07:09;;;;;;;12.00;8.30;;;;;;;12.89;76.75;99354.61;423146;1285;111299;-40
2022/10/11 10:17:18;;;;;;;17.60;7.20;;;;;;;12.93;76.21;99360.97;423155;1290;107856;-41
2022/10/11 10:27:28;;;;;;;10.80;7.40;;;;;;;13.22;75.64;99359.84;422606;1295;97292;-40
2022/10/11 10:37:36;;;;;;;10.20;6.00;;;;;;;13.71;74.89;99362.16;422771;1293;109932;-40
2022/10/11 10:48:04;;;;;;;13.30;8.00;;;;;;;13.91;74.03;99363.56;422247;1293;423671;-40
2022/10/11 10:58:30;;;;;;;8.10;6.20;;;;;;;14.06;73.24;99368.03;422576;1287;97867;-40
2022/10/11 11:08:54;;;;;;;9.80;4.50;;;;;;;13.95;72.18;99375.04;422504;1293;109425;-40
2022/10/11 11:19:06;;;;;;;9.00;5.00;;;;;;;14.02;71.23;99382.00;422658;1289;107403;-40
2022/10/11 11:29:14;;;;;;;10.40;4.40;;;;;;;14.31;70.60;99379.30;422606;1285;97898;-41
2022/10/11 11:39:22;;;;;;;10.30;4.80;;;;;;;14.62;69.80;99391.93;422307;1291;97849;-41
2022/10/11 11:49:32;;;;;;;8.10;3.40;;;;;;;14.22;68.88;99387.73;422854;1285;109501;-41
2022/10/11 11:59:36;;;;;;;6.20;3.80;;;;;;;13.84;68.56;99388.09;423027;1293;107532;-40
2022/10/11 12:09:49;;;;;;;6.60;2.60;;;;;;;13.95;68.48;99383.12;422702;1286;97762;-40
2022/10/11 12:20:19;;;;;;;8.20;3.50;;;;;;;13.96;67.83;99389.52;422726;1279;110042;-40
2022/10/11 12:40:55;;;;;;;9.70;3.40;;;;;;;14.17;67.49;99388.46;422987;1293;97471;-40
2022/10/11 12:51:14;;;;;;;7.40;3.10;;;;;;;14.16;66.72;99391.43;422704;1292;98217;-41
2022/10/11 13:01:20;;;;;;;;;;;;;;;14.04;66.16;99393.75;422689;1292;111024;-39
2022/10/11 13:11:28;;;;;;;5.70;2.60;;;;;;;14.04;66.22;99402.56;422429;1288;107780;-41
2022/10/11 13:21:38;;;;;;;6.70;2.90;;;;;;;14.02;65.87;99400.92;422809;1280;118209;-41
2022/10/11 13:31:47;;;;;;;7.40;3.00;;;;;;;13.96;65.59;99404.25;422655;1287;109930;-38
2022/10/11 13:41:54;;;;;;;7.80;2.70;;;;;;;13.91;65.30;99402.54;423272;1288;107395;-39
2022/10/11 13:52:05;;;;;;;9.60;3.20;;;;;;;13.78;64.90;99407.78;423528;1284;97472;-39
2022/10/11 14:02:13;;;;;;;8.40;2.80;;;;;;;13.69;64.88;99411.19;422626;1294;109060;-42
2022/10/11 14:12:28;;;;;;;5.70;2.80;;;;;;;13.58;64.53;99415.30;422272;1286;106795;-40
2022/10/11 14:22:35;;;;;;;10.60;3.10;;;;;;;13.49;64.71;99416.36;422862;1285;97529;-39
2022/10/11 14:32:43;;;;;;;15.30;3.20;;;;;;;13.42;64.76;99421.23;422873;1292;111106;-40
2022/10/11 14:42:51;;;;;;;9.60;3.00;;;;;;;13.25;64.42;99422.64;422352;1288;106640;-39
2022/10/11 14:52:58;;;;;;;10.80;3.00;;;;;;;13.00;64.12;99426.78;422813;1286;97941;-39
2022/10/11 15:03:05;;;;;;;7.70;2.80;;;;;;;12.78;64.10;99440.10;422677;1293;109587;-39
2022/10/11 15:13:11;;;;;;;8.50;4.40;;;;;;;12.54;64.22;99438.40;422951;1295;107102;-39
2022/10/11 15:23:19;;;;;;;16.40;6.80;;;;;;;12.29;64.46;99443.70;422552;1280;97890;-39
2022/10/11 15:33:27;;;;;;;14.70;5.90;;;;;;;11.99;64.77;99445.36;422720;1295;110058;-40
2022/10/11 15:43:34;;;;;;;17.60;6.60;;;;;;;11.69;65.09;99445.60;422867;1293;108115;-40
2022/10/11 15:53:41;;;;;;;13.10;6.90;;;;;;;11.35;65.47;99454.81;422561;1286;97481;-39
2022/10/11 16:03:50;;;;;;;14.40;7.50;;;;;;;10.96;66.08;99464.30;422757;1293;110905;-39
2022/10/11 16:13:57;;;;;;;21.70;8.30;;;;;;;10.60;66.63;99470.52;422938;1288;108310;-40
2022/10/11 16:24:05;;;;;;;45.50;19.10;;;;;;;10.24;67.28;99487.52;422682;1293;97861;-40
2022/10/11 16:34:12;;;;;;;56.20;24.00;;;;;;;9.83;67.88;99500.39;422494;1295;109693;-40
2022/10/11 16:44:19;;;;;;;76.30;34.20;;;;;;;9.34;68.27;99510.37;423373;1283;108093;-40
2022/10/11 16:54:29;;;;;;;80.50;37.80;;;;;;;8.93;68.75;99515.82;423256;1288;97259;-39
2022/10/11 17:04:36;;;;;;;69.30;30.30;;;;;;;8.61;69.18;99522.52;422898;1292;108492;-39
2022/10/11 17:14:42;;;;;;;54.10;24.60;;;;;;;8.36;69.57;99526.25;422701;1286;97470;-39
2022/10/11 17:24:49;;;;;;;54.30;26.70;;;;;;;8.20;70.10;99534.23;422713;1292;109922;-41
2022/10/11 17:34:56;;;;;;;62.80;33.50;;;;;;;7.98;70.23;99542.18;422535;1293;108367;-40
2022/10/11 17:45:03;;;;;;;77.80;35.20;;;;;;;7.70;70.61;99549.14;422544;1287;121842;-40
2022/10/11 17:55:08;;;;;;;37.00;19.60;;;;;;;7.34;70.95;99547.82;422652;1294;107503;-40
2022/10/11 18:05:16;;;;;;;52.00;24.60;;;;;;;7.13;71.21;99546.73;422278;1294;97511;-41
2022/10/11 18:15:23;;;;;;;32.50;17.60;;;;;;;7.04;71.83;99546.73;422950;1287;110462;-39
2022/10/11 18:25:32;;;;;;;30.30;14.90;;;;;;;7.05;71.86;99548.34;422473;1294;107687;-42
2022/10/11 18:35:38;;;;;;;32.50;16.50;;;;;;;6.85;72.06;99549.36;422112;1294;97905;-39
2022/10/11 18:45:46;;;;;;;68.30;37.30;;;;;;;6.63;72.50;99539.89;422546;1295;110935;-40
2022/10/11 18:55:57;;;;;;;58.80;32.30;;;;;;;6.45;72.71;99543.83;422458;1295;107980;-40
2022/10/11 19:16:10;;;;;;;83.90;42.40;;;;;;;6.35;73.26;99546.55;422575;1287;108547;-40
2022/10/11 19:46:47;;;;;;;92.70;47.50;;;;;;;6.33;74.11;99556.05;422397;1288;108273;-40
2022/10/11 19:56:59;;;;;;;186.40;91.40;;;;;;;6.32;74.03;99562.27;422718;1292;97911;-40
2022/10/11 20:07:06;;;;;;;273.20;137.80;;;;;;;6.24;74.27;99566.10;422695;1292;110690;-41
2022/10/11 20:17:14;;;;;;;296.20;146.60;;;;;;;5.98;74.29;99573.12;422474;1292;108565;-41
2022/10/11 20:37:27;;;;;;;196.50;100.50;;;;;;;5.67;74.51;99577.48;422851;1292;110230;-40
2022/10/11 20:47:35;;;;;;;195.90;101.40;;;;;;;5.60;74.80;99579.17;422396;1295;107687;-40
2022/10/11 20:57:42;;;;;;;171.60;93.10;;;;;;;5.56;75.02;99580.20;422642;1295;97869;-39
2022/10/11 21:07:51;;;;;;;163.80;86.00;;;;;;;5.46;75.11;99578.73;422944;1284;107795;-40
2022/10/11 21:17:59;;;;;;;161.40;82.90;;;;;;;5.39;75.27;99583.18;422611;1286;97490;-40
2022/10/11 21:28:06;;;;;;;145.60;79.60;;;;;;;5.31;75.50;99584.80;422842;1292;111604;-40
2022/10/11 21:38:14;;;;;;;150.50;80.40;;;;;;;5.23;75.61;99587.98;422534;1295;107294;-40
2022/10/11 21:48:21;;;;;;;138.00;76.30;;;;;;;5.15;75.83;99591.96;422448;1292;97488;-40
2022/10/11 21:58:29;;;;;;;166.10;84.10;;;;;;;5.13;75.99;99596.27;422651;1294;108066;-40
2022/10/11 22:08:39;;;;;;;166.60;88.10;;;;;;;4.95;76.02;99593.33;422846;1293;98190;-39
2022/10/11 22:18:45;;;;;;;142.00;77.00;;;;;;;4.77;76.28;99585.57;422947;1292;97498;-40
2022/10/11 22:28:53;;;;;;;100.80;53.30;;;;;;;4.64;76.41;99585.20;422706;1293;110515;-40
2022/10/11 22:39:01;;;;;;;90.30;49.10;;;;;;;4.61;76.48;99587.87;422584;1295;286100;-40
2022/10/11 22:49:09;;;;;;;89.40;48.70;;;;;;;4.66;76.59;99585.08;422916;1288;96722;-40
2022/10/11 22:59:15;;;;;;;85.40;43.20;;;;;;;4.67;76.68;99589.41;423049;1293;107710;-39
2022/10/11 23:19:30;;;;;;;105.10;54.10;;;;;;;4.68;76.97;99587.78;422897;1292;109709;-39
2022/10/11 23:39:44;;;;;;;105.40;55.70;;;;;;;4.36;77.05;99596.05;422946;1295;97949;-39
2022/10/11 23:49:51;;;;;;;106.50;58.60;;;;;;;4.35;77.23;99597.52;422818;1295;108948;-43
2022/10/11 23:59:57;;;;;;;93.20;51.00;;;;;;;4.32;77.36;99603.61;422497;1298;108039;-40
